createdAt,value
2022-08-21T00:00:42.327Z,97053.05
2022-08-21T00:03:13.974Z,97054.02
2022-08-21T00:05:53.034Z,97054.92
2022-08-21T00:08:22.090Z,97052.23
2022-08-21T00:10:50.531Z,97050.35
2022-08-21T00:13:20.904Z,97050.55
2022-08-21T00:15:50.340Z,97053.19
2022-08-21T00:18:19.813Z,97047.70
2022-08-21T00:20:48.196Z,97045.77
2022-08-21T00:23:17.137Z,97044.10
2022-08-21T00:25:45.981Z,97043.13
2022-08-21T00:28:14.889Z,97038.27
2022-08-21T00:30:44.489Z,97035.69
2022-08-21T00:33:14.483Z,97034.02
2022-08-21T00:35:44.190Z,97035.36
2022-08-21T00:38:12.454Z,97035.58
2022-08-21T00:40:48.291Z,97037.77
2022-08-21T00:43:19.828Z,97041.68
2022-08-21T00:45:48.169Z,97048.09
2022-08-21T00:48:17.111Z,97044.80
2022-08-21T00:50:58.071Z,97041.34
2022-08-21T00:53:27.762Z,97041.48
2022-08-21T00:55:57.071Z,97040.66
2022-08-21T00:58:28.752Z,97032.48
2022-08-21T01:00:57.578Z,97027.73
2022-08-21T01:03:26.980Z,97018.69
2022-08-21T01:05:55.273Z,97016.24
2022-08-21T01:08:24.905Z,97015.17
2022-08-21T01:10:55.026Z,97007.92
2022-08-21T01:13:28.981Z,97005.42
2022-08-21T01:16:00.460Z,97002.09
2022-08-21T01:18:30.331Z,96998.76
2022-08-21T01:21:02.028Z,97000.29
2022-08-21T01:23:30.374Z,97003.58
2022-08-21T01:25:58.672Z,97007.12
2022-08-21T01:28:31.503Z,97012.67
2022-08-21T01:31:01.967Z,97011.56
2022-08-21T01:33:30.013Z,97009.69
2022-08-21T01:35:58.396Z,97008.08
2022-08-21T01:38:26.731Z,97012.53
2022-08-21T01:40:55.639Z,97022.17
2022-08-21T01:43:39.323Z,97031.64
2022-08-21T01:46:08.006Z,97030.52
2022-08-21T01:48:37.025Z,97021.38
2022-08-21T01:51:06.642Z,97015.05
2022-08-21T01:53:37.907Z,97022.77
2022-08-21T01:56:12.484Z,97034.21
2022-08-21T01:58:42.254Z,97045.45
2022-08-21T02:01:11.560Z,97047.02
2022-08-21T02:03:41.729Z,97047.66
2022-08-21T02:06:16.125Z,97049.08
2022-08-21T02:08:44.469Z,97052.87
2022-08-21T02:11:13.069Z,97054.91
2022-08-21T02:13:41.146Z,97051.73
2022-08-21T02:16:10.051Z,97049.64
2022-08-21T02:18:38.684Z,97051.89
2022-08-21T02:21:08.209Z,97049.40
2022-08-21T02:23:36.538Z,97045.62
2022-08-21T02:26:07.993Z,97042.63
2022-08-21T02:28:37.331Z,97047.73
2022-08-21T02:31:07.106Z,97049.44
2022-08-21T02:33:36.802Z,97058.92
2022-08-21T02:36:06.387Z,97070.02
2022-08-21T02:38:39.242Z,97075.93
2022-08-21T02:41:10.130Z,97074.73
2022-08-21T02:43:38.247Z,97079.60
2022-08-21T02:46:12.902Z,97086.40
2022-08-21T02:48:41.592Z,97091.96
2022-08-21T02:51:13.596Z,97096.50
2022-08-21T02:53:43.210Z,97095.77
2022-08-21T02:56:13.345Z,97095.23
2022-08-21T02:58:48.167Z,97110.16
2022-08-21T03:01:16.699Z,97114.09
2022-08-21T03:03:50.876Z,97119.83
2022-08-21T03:06:21.678Z,97126.25
2022-08-21T03:08:50.055Z,97130.15
2022-08-21T03:11:18.650Z,97138.45
2022-08-21T03:13:46.670Z,97145.46
2022-08-21T03:16:14.694Z,97146.57
2022-08-21T03:18:43.131Z,97155.09
2022-08-21T03:21:11.917Z,97161.84
2022-08-21T03:23:41.082Z,97160.11
2022-08-21T03:26:10.205Z,97151.59
2022-08-21T03:28:39.262Z,97141.98
2022-08-21T03:31:07.509Z,97139.39
2022-08-21T03:33:35.585Z,97134.70
2022-08-21T03:36:07.806Z,97141.38
2022-08-21T03:38:37.631Z,97141.71
2022-08-21T03:41:06.961Z,97142.46
2022-08-21T03:43:36.809Z,97146.42
2022-08-21T03:46:07.842Z,97146.05
2022-08-21T03:48:38.467Z,97148.15
2022-08-21T03:51:07.519Z,97144.09
2022-08-21T03:53:36.305Z,97139.36
2022-08-21T03:56:04.936Z,97135.02
2022-08-21T03:58:33.704Z,97137.63
2022-08-21T04:01:03.459Z,97136.60
2022-08-21T04:03:31.664Z,97139.44
2022-08-21T04:06:00.130Z,97136.16
2022-08-21T04:08:28.160Z,97136.54
2022-08-21T04:10:59.358Z,97133.52
2022-08-21T04:13:29.233Z,97133.11
2022-08-21T04:15:59.659Z,97138.08
2022-08-21T04:18:27.841Z,97136.59
2022-08-21T04:20:58.437Z,97141.06
2022-08-21T04:23:27.135Z,97141.20
2022-08-21T04:25:57.022Z,97141.93
2022-08-21T04:28:29.227Z,97136.64
2022-08-21T04:30:59.834Z,97138.81
2022-08-21T04:33:27.889Z,97141.19
2022-08-21T04:35:55.932Z,97141.09
2022-08-21T04:38:24.270Z,97134.00
2022-08-21T04:40:53.057Z,97132.67
2022-08-21T04:43:24.206Z,97135.21
2022-08-21T04:45:54.321Z,97143.11
2022-08-21T04:48:25.258Z,97146.81
2022-08-21T04:50:57.570Z,97148.02
2022-08-21T04:53:31.348Z,97147.49
2022-08-21T04:56:05.529Z,97148.21
2022-08-21T04:58:36.093Z,97147.52
2022-08-21T05:01:08.151Z,97159.27
2022-08-21T05:03:38.363Z,97164.67
2022-08-21T05:06:09.839Z,97167.58
2022-08-21T05:08:39.663Z,97168.34
2022-08-21T05:11:08.043Z,97169.63
2022-08-21T05:13:37.469Z,97169.56
2022-08-21T05:16:06.374Z,97167.96
2022-08-21T05:18:35.035Z,97173.45
2022-08-21T05:21:04.026Z,97181.02
2022-08-21T05:23:32.090Z,97179.73
2022-08-21T05:26:02.335Z,97166.77
2022-08-21T05:28:30.457Z,97170.90
2022-08-21T05:30:59.332Z,97180.40
2022-08-21T05:33:28.093Z,97190.65
2022-08-21T05:35:56.993Z,97195.42
2022-08-21T05:38:26.063Z,97197.26
2022-08-21T05:40:55.018Z,97197.77
2022-08-21T05:43:24.148Z,97205.31
2022-08-21T05:45:52.215Z,97215.33
2022-08-21T05:48:23.869Z,97221.55
2022-08-21T05:50:53.624Z,97228.40
2022-08-21T05:53:23.474Z,97228.44
2022-08-21T05:55:52.940Z,97231.61
2022-08-21T05:58:23.925Z,97232.92
2022-08-21T06:00:52.941Z,97236.44
2022-08-21T06:03:24.175Z,97238.77
2022-08-21T06:05:53.887Z,97240.71
2022-08-21T06:08:22.927Z,97243.98
2022-08-21T06:10:52.764Z,97242.92
2022-08-21T06:13:23.078Z,97239.85
2022-08-21T06:15:52.247Z,97238.55
2022-08-21T06:18:20.170Z,97237.39
2022-08-21T06:20:48.648Z,97233.52
2022-08-21T06:23:16.857Z,97227.98
2022-08-21T06:25:44.839Z,97223.65
2022-08-21T06:28:13.692Z,97224.11
2022-08-21T06:30:42.538Z,97229.39
2022-08-21T06:33:10.563Z,97231.23
2022-08-21T06:35:41.474Z,97234.70
2022-08-21T06:38:10.199Z,97239.55
2022-08-21T06:40:43.868Z,97241.75
2022-08-21T06:43:17.712Z,97235.32
2022-08-21T06:45:46.317Z,97237.05
2022-08-21T06:48:18.948Z,97234.52
2022-08-21T06:50:48.843Z,97223.88
2022-08-21T06:53:20.585Z,97211.06
2022-08-21T06:55:49.919Z,97205.70
2022-08-21T06:58:18.304Z,97209.78
2022-08-21T07:00:49.519Z,97209.45
2022-08-21T07:03:36.948Z,97208.15
2022-08-21T07:06:07.120Z,97211.90
2022-08-21T07:08:36.095Z,97214.36
2022-08-21T07:11:12.025Z,97210.00
2022-08-21T07:13:40.048Z,97211.43
2022-08-21T07:16:09.634Z,97209.36
2022-08-21T07:18:38.181Z,97212.34
2022-08-21T07:21:09.733Z,97210.10
2022-08-21T07:23:46.290Z,97204.90
2022-08-21T07:26:17.642Z,97199.08
2022-08-21T07:28:45.744Z,97202.18
2022-08-21T07:31:16.511Z,97204.52
2022-08-21T07:33:45.567Z,97205.36
2022-08-21T07:36:14.483Z,97201.09
2022-08-21T07:38:42.791Z,97192.34
2022-08-21T07:41:24.131Z,97187.65
2022-08-21T07:43:53.845Z,97183.33
2022-08-21T07:46:22.120Z,97179.92
2022-08-21T07:48:50.131Z,97183.93
2022-08-21T07:51:24.978Z,97182.95
2022-08-21T07:53:55.346Z,97176.63
2022-08-21T07:56:23.455Z,97176.25
2022-08-21T07:58:51.424Z,97168.77
2022-08-21T08:01:21.565Z,97158.92
2022-08-21T08:03:50.293Z,97141.20
2022-08-21T08:06:19.739Z,97140.95
2022-08-21T08:08:48.404Z,97149.05
2022-08-21T08:11:17.690Z,97145.17
2022-08-21T08:13:48.749Z,97155.00
2022-08-21T08:16:16.985Z,97161.60
2022-08-21T08:18:45.899Z,97159.71
2022-08-21T08:21:14.862Z,97165.04
2022-08-21T08:23:45.041Z,97152.04
2022-08-21T08:26:13.182Z,97149.30
2022-08-21T08:28:41.740Z,97148.97
2022-08-21T08:31:09.834Z,97151.07
2022-08-21T08:33:37.943Z,97156.48
2022-08-21T08:36:13.673Z,97158.95
2022-08-21T08:38:42.877Z,97164.10
2022-08-21T08:41:30.838Z,97163.27
2022-08-21T08:44:08.039Z,97137.90
2022-08-21T08:46:42.895Z,97139.41
2022-08-21T08:49:24.286Z,97139.23
2022-08-21T08:52:02.829Z,97125.05
2022-08-21T08:54:38.785Z,97119.92
2022-08-21T08:57:12.569Z,97133.34
2022-08-21T08:59:45.371Z,97154.44
2022-08-21T09:02:18.275Z,97153.48
2022-08-21T09:04:49.424Z,97121.41
2022-08-21T09:07:35.213Z,97105.91
2022-08-21T09:10:06.399Z,97116.27
2022-08-21T09:13:05.438Z,97120.67
2022-08-21T09:15:59.600Z,97095.27
2022-08-21T09:18:51.842Z,97087.67
2022-08-21T09:21:51.133Z,97059.06
2022-08-21T09:25:00.419Z,97033.79
2022-08-21T09:27:30.086Z,97027.23
2022-08-21T09:29:59.251Z,97014.77
2022-08-21T09:32:37.770Z,97011.33
2022-08-21T09:35:13.962Z,97013.92
2022-08-21T09:38:04.022Z,97028.92
2022-08-21T09:40:40.286Z,97050.17
2022-08-21T09:43:18.311Z,97053.48
2022-08-21T09:45:49.173Z,97051.23
2022-08-21T09:48:27.377Z,97035.36
2022-08-21T09:51:13.246Z,97018.57
2022-08-21T09:53:55.425Z,97009.48
2022-08-21T09:56:53.582Z,96995.59
2022-08-21T09:59:36.914Z,96986.84
2022-08-21T10:02:32.691Z,96974.09
2022-08-21T10:05:09.568Z,97001.98
2022-08-21T10:07:39.859Z,96986.88
2022-08-21T10:10:19.601Z,96958.92
2022-08-21T10:13:15.137Z,96952.06
2022-08-21T10:16:04.089Z,96953.16
2022-08-21T10:19:03.673Z,96950.54
2022-08-21T10:21:40.075Z,96951.89
2022-08-21T10:24:40.328Z,96960.64
2022-08-21T10:27:41.184Z,96953.52
2022-08-21T10:30:31.570Z,96968.84
2022-08-21T10:33:12.826Z,96960.04
2022-08-21T10:35:56.448Z,96981.83
2022-08-21T10:39:23.691Z,96986.38
2022-08-21T10:42:12.545Z,96988.08
2022-08-21T10:44:49.398Z,97007.97
2022-08-21T10:47:37.847Z,96963.69
2022-08-21T10:50:08.875Z,96937.70
2022-08-21T10:52:48.359Z,96925.56
2022-08-21T10:55:22.234Z,96921.56
2022-08-21T10:58:07.622Z,96917.76
2022-08-21T11:01:09.098Z,96915.15
2022-08-21T11:03:44.577Z,96913.43
2022-08-21T11:06:28.332Z,96916.43
2022-08-21T11:09:05.519Z,96914.63
2022-08-21T11:11:54.688Z,96913.07
2022-08-21T11:15:02.264Z,96922.01
2022-08-21T11:17:50.796Z,96912.57
2022-08-21T11:20:48.001Z,96902.48
2022-08-21T11:23:25.309Z,96900.04
2022-08-21T11:26:02.599Z,96901.95
2022-08-21T11:28:42.184Z,96902.25
2022-08-21T11:31:13.718Z,96903.55
2022-08-21T11:34:02.177Z,96898.80
2022-08-21T11:36:48.830Z,96895.27
2022-08-21T11:39:21.466Z,96889.65
2022-08-21T11:41:49.704Z,96888.85
2022-08-21T11:44:44.485Z,96888.41
2022-08-21T11:47:17.826Z,96885.76
2022-08-21T11:49:55.704Z,96880.01
2022-08-21T11:52:42.266Z,96889.05
2022-08-21T11:55:25.526Z,96882.04
2022-08-21T11:58:00.770Z,96878.69
2022-08-21T12:00:39.507Z,96889.52
2022-08-21T12:03:16.651Z,96885.56
2022-08-21T12:06:08.498Z,96884.01
2022-08-21T12:08:44.018Z,96881.88
2022-08-21T12:11:21.094Z,96888.25
2022-08-21T12:14:07.698Z,96874.12
2022-08-21T12:16:42.187Z,96861.45
2022-08-21T12:19:11.957Z,96859.92
2022-08-21T12:21:58.330Z,96858.42
2022-08-21T12:24:31.250Z,96852.36
2022-08-21T12:27:14.272Z,96849.53
2022-08-21T12:29:51.780Z,96849.54
2022-08-21T12:32:26.783Z,96841.52
2022-08-21T12:35:08.073Z,96841.27
2022-08-21T12:37:52.180Z,96849.70
2022-08-21T12:40:32.090Z,96843.75
2022-08-21T12:43:03.709Z,96835.45
2022-08-21T12:45:41.315Z,96839.93
2022-08-21T12:48:28.215Z,96837.67
2022-08-21T12:51:05.893Z,96835.14
2022-08-21T12:53:56.975Z,96827.73
2022-08-21T12:56:34.822Z,96822.93
2022-08-21T12:59:12.467Z,96825.69
2022-08-21T13:01:50.810Z,96821.95
2022-08-21T13:04:23.573Z,96820.71
2022-08-21T13:06:55.667Z,96819.63
2022-08-21T13:09:31.080Z,96819.67
2022-08-21T13:12:01.234Z,96821.57
2022-08-21T13:14:45.969Z,96814.96
2022-08-21T13:17:25.592Z,96814.95
2022-08-21T13:20:02.507Z,96818.08
2022-08-21T13:22:35.085Z,96817.58
2022-08-21T13:25:07.162Z,96815.44
2022-08-21T13:27:36.485Z,96802.36
2022-08-21T13:30:19.659Z,96799.03
2022-08-21T13:32:58.359Z,96796.57
2022-08-21T13:35:38.417Z,96794.57
2022-08-21T13:38:09.282Z,96793.67
2022-08-21T13:40:51.622Z,96797.75
2022-08-21T13:43:23.400Z,96798.65
2022-08-21T13:45:55.484Z,96800.90
2022-08-21T13:48:27.448Z,96808.00
2022-08-21T13:50:56.233Z,96816.74
2022-08-21T13:53:36.850Z,96817.87
2022-08-21T13:56:06.051Z,96811.88
2022-08-21T13:58:44.443Z,96806.59
2022-08-21T14:01:30.015Z,96803.45
2022-08-21T14:04:05.954Z,96804.72
2022-08-21T14:06:39.360Z,96801.65
2022-08-21T14:09:14.239Z,96796.23
2022-08-21T14:11:43.111Z,96805.05
2022-08-21T14:14:23.326Z,96811.11
2022-08-21T14:17:00.739Z,96815.23
2022-08-21T14:19:45.408Z,96815.71
2022-08-21T14:22:37.422Z,96807.88
2022-08-21T14:25:06.810Z,96801.26
2022-08-21T14:27:38.274Z,96798.98
2022-08-21T14:30:18.451Z,96799.55
2022-08-21T14:32:47.517Z,96807.70
2022-08-21T14:35:18.886Z,96810.77
2022-08-21T14:37:53.330Z,96804.30
2022-08-21T14:40:25.088Z,96795.04
2022-08-21T14:42:54.357Z,96787.10
2022-08-21T14:45:32.660Z,96786.00
2022-08-21T14:48:00.996Z,96784.79
2022-08-21T14:50:29.047Z,96781.33
2022-08-21T14:52:57.306Z,96782.73
2022-08-21T14:55:26.823Z,96780.47
2022-08-21T14:57:57.975Z,96770.87
2022-08-21T15:00:35.465Z,96759.65
2022-08-21T15:03:05.464Z,96742.73
2022-08-21T15:05:34.337Z,96733.61
2022-08-21T15:08:05.718Z,96747.95
2022-08-21T15:10:48.114Z,96763.30
2022-08-21T15:13:24.946Z,96776.32
2022-08-21T15:15:57.188Z,96785.45
2022-08-21T15:18:28.743Z,96784.66
2022-08-21T15:20:59.004Z,96776.94
2022-08-21T15:23:27.053Z,96770.79
2022-08-21T15:25:58.647Z,96767.48
2022-08-21T15:28:31.701Z,96759.75
2022-08-21T15:31:01.656Z,96760.46
2022-08-21T15:33:30.071Z,96761.67
2022-08-21T15:35:58.833Z,96766.39
2022-08-21T15:38:28.608Z,96773.02
2022-08-21T15:40:56.718Z,96783.56
2022-08-21T15:43:30.131Z,96788.25
2022-08-21T15:46:03.029Z,96798.90
2022-08-21T15:48:31.131Z,96803.11
2022-08-21T15:50:59.606Z,96808.36
2022-08-21T15:53:28.166Z,96823.14
2022-08-21T15:55:56.289Z,96822.17
2022-08-21T15:58:24.593Z,96824.77
2022-08-21T16:00:53.676Z,96823.15
2022-08-21T16:03:23.079Z,96827.88
2022-08-21T16:05:56.435Z,96834.86
2022-08-21T16:08:25.740Z,96840.08
2022-08-21T16:10:55.331Z,96837.73
2022-08-21T16:13:30.521Z,96844.84
2022-08-21T16:16:01.635Z,96848.06
2022-08-21T16:18:30.923Z,96850.91
2022-08-21T16:20:59.347Z,96858.58
2022-08-21T16:23:28.464Z,96860.57
2022-08-21T16:26:00.944Z,96865.63
2022-08-21T16:28:30.951Z,96864.85
2022-08-21T16:31:00.011Z,96864.66
2022-08-21T16:33:36.932Z,96864.42
2022-08-21T16:36:07.604Z,96865.05
2022-08-21T16:38:38.316Z,96866.57
2022-08-21T16:41:10.077Z,96874.83
2022-08-21T16:43:40.854Z,96890.22
2022-08-21T16:46:12.881Z,96895.61
2022-08-21T16:48:45.435Z,96900.80
2022-08-21T16:51:15.518Z,96901.89
2022-08-21T16:53:43.852Z,96899.05
2022-08-21T16:56:14.543Z,96897.77
2022-08-21T16:58:48.512Z,96908.53
2022-08-21T17:01:25.002Z,96915.08
2022-08-21T17:03:54.130Z,96914.89
2022-08-21T17:06:28.940Z,96922.61
2022-08-21T17:09:01.357Z,96932.25
2022-08-21T17:11:39.153Z,96926.59
2022-08-21T17:14:17.290Z,96925.79
2022-08-21T17:16:48.919Z,96925.09
2022-08-21T17:19:18.419Z,96921.96
2022-08-21T17:21:47.636Z,96919.35
2022-08-21T17:24:16.341Z,96924.11
2022-08-21T17:26:46.012Z,96922.94
2022-08-21T17:29:27.403Z,96926.95
2022-08-21T17:31:56.295Z,96929.45
2022-08-21T17:34:26.225Z,96934.38
2022-08-21T17:37:00.526Z,96935.61
2022-08-21T17:39:32.908Z,96935.96
2022-08-21T17:42:06.535Z,96939.92
2022-08-21T17:44:37.235Z,96940.45
2022-08-21T17:47:07.475Z,96951.28
2022-08-21T17:49:38.070Z,96952.92
2022-08-21T17:52:07.667Z,96955.67
2022-08-21T17:54:37.546Z,96952.12
2022-08-21T17:57:06.130Z,96952.64
2022-08-21T17:59:35.244Z,96963.64
2022-08-21T18:02:04.494Z,96964.05
2022-08-21T18:04:37.881Z,96974.81
2022-08-21T18:07:06.754Z,96984.87
2022-08-21T18:09:34.855Z,96986.23
2022-08-21T18:12:03.692Z,96986.05
2022-08-21T18:14:35.137Z,96992.55
2022-08-21T18:17:09.020Z,96989.34
2022-08-21T18:19:38.356Z,96984.19
2022-08-21T18:22:18.718Z,96991.20
2022-08-21T18:24:47.488Z,96988.50
2022-08-21T18:27:16.306Z,96990.55
2022-08-21T18:29:47.543Z,96994.42
2022-08-21T18:32:30.551Z,96996.05
2022-08-21T18:35:03.343Z,96993.66
2022-08-21T18:37:31.946Z,96994.98
2022-08-21T18:40:01.628Z,96991.98
2022-08-21T18:42:34.617Z,96991.09
2022-08-21T18:45:10.464Z,96989.82
2022-08-21T18:47:46.249Z,96991.50
2022-08-21T18:50:22.071Z,96996.23
2022-08-21T18:52:54.484Z,96996.69
2022-08-21T18:55:24.472Z,96999.41
2022-08-21T18:57:55.263Z,97000.97
2022-08-21T19:00:30.421Z,96996.84
2022-08-21T19:03:00.094Z,96993.02
2022-08-21T19:05:29.035Z,96993.65
2022-08-21T19:07:58.967Z,96992.27
2022-08-21T19:13:20.882Z,96992.37
2022-08-21T19:15:53.078Z,96986.75
2022-08-21T19:18:28.276Z,96991.16
2022-08-21T19:21:14.517Z,96992.38
2022-08-21T19:23:44.335Z,96988.39
2022-08-21T19:26:12.637Z,96986.89
2022-08-21T19:28:47.670Z,96987.19
2022-08-21T19:31:24.813Z,96993.70
2022-08-21T19:34:06.013Z,96988.34
2022-08-21T19:36:35.067Z,96988.34
2022-08-21T19:39:08.234Z,96982.80
2022-08-21T19:41:56.387Z,96978.93
2022-08-21T19:44:28.755Z,96979.59
2022-08-21T19:46:58.723Z,96981.44
2022-08-21T19:49:33.719Z,96983.18
2022-08-21T19:52:12.872Z,96973.98
2022-08-21T19:54:42.551Z,96976.23
2022-08-21T19:57:12.867Z,96980.95
2022-08-21T19:59:43.053Z,96986.87
2022-08-21T20:02:14.588Z,96989.70
2022-08-21T20:04:53.965Z,96988.75
2022-08-21T20:07:26.675Z,96988.78
2022-08-21T20:09:56.971Z,96990.39
2022-08-21T20:12:27.912Z,96986.08
2022-08-21T20:14:59.405Z,96986.63
2022-08-21T20:17:27.702Z,96992.33
2022-08-21T20:19:55.823Z,97001.09
2022-08-21T20:22:24.499Z,97003.89
2022-08-21T20:24:55.296Z,97004.77
2022-08-21T20:27:27.756Z,97010.08
2022-08-21T20:29:56.652Z,97002.19
2022-08-21T20:32:27.109Z,97005.48
2022-08-21T20:34:56.510Z,96999.33
2022-08-21T20:37:37.154Z,96992.67
2022-08-21T20:40:12.104Z,96990.24
2022-08-21T20:42:45.573Z,96993.98
2022-08-21T20:45:29.989Z,97002.29
2022-08-21T20:48:18.119Z,97000.89
2022-08-21T20:50:59.163Z,96995.62
2022-08-21T20:53:43.150Z,96986.59
2022-08-21T20:56:29.942Z,96989.38
2022-08-21T20:59:07.176Z,96985.60
2022-08-21T21:01:36.899Z,96984.48
2022-08-21T21:04:20.339Z,96983.30
2022-08-21T21:06:53.381Z,96980.55
2022-08-21T21:09:40.221Z,96975.79
2022-08-21T21:12:19.003Z,96975.57
2022-08-21T21:15:01.599Z,96977.27
2022-08-21T21:17:43.528Z,96978.77
2022-08-21T21:20:19.348Z,96974.98
2022-08-21T21:23:04.991Z,96979.85
2022-08-21T21:25:43.883Z,96984.19
2022-08-21T21:28:38.854Z,96982.38
2022-08-21T21:31:11.776Z,96980.13
2022-08-21T21:33:41.024Z,96976.70
2022-08-21T21:36:22.415Z,96973.44
2022-08-21T21:39:08.916Z,96970.29
2022-08-21T21:41:54.335Z,96966.05
2022-08-21T21:48:03.659Z,96967.41
2022-08-21T21:51:12.852Z,96971.52
2022-08-21T21:54:05.859Z,96970.85
2022-08-21T22:00:20.739Z,96970.98
2022-08-21T22:03:13.520Z,96977.69
2022-08-21T22:06:01.200Z,96980.58
2022-08-21T22:08:58.875Z,96975.27
2022-08-21T22:11:46.199Z,96975.41
2022-08-21T22:14:18.789Z,96976.22
2022-08-21T22:16:53.235Z,96974.73
2022-08-21T22:19:26.086Z,96971.58
2022-08-21T22:22:01.717Z,96973.03
2022-08-21T22:24:38.663Z,96970.52
2022-08-21T22:27:13.027Z,96967.63
2022-08-21T22:29:56.009Z,96965.52
2022-08-21T22:32:40.180Z,96965.13
2022-08-21T22:35:23.808Z,96965.41
2022-08-21T22:37:55.345Z,96965.66
2022-08-21T22:40:34.877Z,96965.23
2022-08-21T22:43:07.765Z,96964.48
2022-08-21T22:46:00.847Z,96977.00
2022-08-21T22:48:33.527Z,96979.24
2022-08-21T22:51:12.316Z,96975.58
2022-08-21T22:53:43.458Z,96977.14
2022-08-21T22:56:31.680Z,96976.48
2022-08-21T22:59:05.053Z,96979.14
2022-08-21T23:01:43.523Z,96977.84
2022-08-21T23:04:24.752Z,96975.92
2022-08-21T23:06:58.177Z,96968.30
2022-08-21T23:09:27.488Z,96970.08
2022-08-21T23:12:21.141Z,96973.70
2022-08-21T23:14:54.839Z,96981.86
2022-08-21T23:17:54.271Z,96986.10
2022-08-21T23:20:56.329Z,96984.86
2022-08-21T23:23:28.694Z,96982.45
2022-08-21T23:26:17.350Z,96987.27
2022-08-21T23:29:26.487Z,96991.74
2022-08-21T23:32:35.690Z,96993.67
2022-08-21T23:35:21.500Z,96999.19
2022-08-21T23:38:09.335Z,97004.77
2022-08-21T23:40:52.445Z,97005.52
2022-08-21T23:43:54.653Z,97007.58
2022-08-21T23:46:48.753Z,97004.45
2022-08-21T23:49:17.520Z,96994.41
2022-08-21T23:52:10.530Z,96997.52
2022-08-21T23:55:14.247Z,96999.48
2022-08-21T23:57:48.474Z,97001.64
